Hartford, CT (06101)

2:13 AM EDT on September 04, 2015 (GMT -0400)
KCTEASTH16 | | Change Station
CLOSE
Current Station
Personal Weather Station
Location: East Hartford, CT
Elevation: 56 ft
Nearby Weather Stations

Elev 56 ft 41.79 °N, 72.63 °W | Updated 7 minutes ago

Clear
Clear
72.5 °F
Feels Like 75 °F
N
0.0
Wind Variable Wind from ENE

Today
High -- | Low -- °F
--% Chance of Precip.
Yesterday
High -- | Low -- °F
Precip. -- in
6:19 AM 7:19 PM
Waning Gibbous, 63% visible
Pressure 29.93 in
Visibility 10.0 miles
Clouds Clear
Heat Index 75 °F
Dew Point 61 °F
Humidity 68%
Rainfall 0.00 in
Snow Depth Not available.
UV 0 out of 12
Pollen 8.30 out of 12
Air Quality Not available.
Flu Activity Not available.
METAR KHFD 040553Z 01007KT 10SM CLR 24/20 A2993 RMK AO2 SLP134 T02390200 10294 20239 51011
Pressure 29.93 in
Visibility 10.0 miles
Clouds Clear
Heat Index 75 °F
Dew Point 61 °F
Humidity 68%
Rainfall 0.00 in
Snow Depth Not available.
UV 0 out of 12
Pollen 8.30 out of 12
Air Quality Not available.
Flu Activity Not available.
METAR KHFD 040553Z 01007KT 10SM CLR 24/20 A2993 RMK AO2 SLP134 T02390200 10294 20239 51011

10-Day Weather Forecast

×

Almanac

Astronomy

Sep. 04, 2015 Rise Set
Actual Time
Civil Twilight
Nautical Twilight
Astronomical Twilight
Moon
Length of Visible Light
Length of Day
Tomorrow will be .
, % of the Moon is Illuminated

Today's Extremes

State Highs State Lows

Community

WunderPhotos

Upload Photos

1,852,132 photos uploaded!

WunderBlogs® & News

Nearby

Air Quality

  Air Quality AQ Index Pollutant
Not available.

Snow Depth

Station Depth Elevation

Earthquake Activity

City Distance Mag. Time & Date
Minimum magnitude displayed is 2.5.

Coastal Water Temperatures

Place Temperature

Stations

Nearby Weather Stations

Station Location Temp. Windchill Dew Point Humidity Wind Precip. Elev Updated Type